Time;durP1;ratioP1;P1;durP2;ratioP2;P2;SDS_P1;SDS_P2;PMS_P1;PMS_P2;Temp;Humidity;BMP_temperature;BMP_pressure;BME280_temperature;BME280_humidity;BME280_pressure;Samples;Min_cycle;Max_cycle;Signal;HPM_P1;HPM_P2
2021/07/19 00:01:43;;;;;;;3.70;3.00;;;20.00;90.30;;;;;;5025432;28;20207;-55
2021/07/19 00:04:10;;;;;;;4.10;3.20;;;19.90;99.90;;;;;;5012690;28;20316;-55
2021/07/19 00:06:37;;;;;;;3.60;3.30;;;19.90;99.90;;;;;;5025606;28;20602;-55
2021/07/19 00:09:04;;;;;;;4.30;3.50;;;19.90;99.90;;;;;;5023392;28;20309;-55
2021/07/19 00:11:35;;;;;;;4.37;3.00;;;19.70;99.90;;;;;;5026909;28;20232;-55
2021/07/19 00:14:02;;;;;;;4.73;3.07;;;19.70;99.90;;;;;;5025565;28;20215;-55
2021/07/19 00:16:30;;;;;;;6.67;3.37;;;19.60;99.90;;;;;;5021884;28;20207;-55
2021/07/19 00:18:57;;;;;;;5.43;3.57;;;19.70;99.90;;;;;;5023314;28;20656;-55
2021/07/19 00:21:24;;;;;;;4.03;3.23;;;19.70;99.90;;;;;;5023064;28;20310;-55
2021/07/19 00:23:51;;;;;;;5.50;2.97;;;19.60;99.90;;;;;;5022582;28;20354;-55
2021/07/19 00:26:19;;;;;;;4.07;3.00;;;19.60;99.90;;;;;;5026566;28;20221;-55
2021/07/19 00:28:50;;;;;;;6.27;2.93;;;19.60;72.10;;;;;;5022771;28;20200;-55
2021/07/19 00:31:20;;;;;;;4.60;3.43;;;19.60;99.90;;;;;;5024432;28;20668;-55
2021/07/19 00:33:47;;;;;;;5.43;3.80;;;19.50;99.90;;;;;;5018754;28;20682;-55
2021/07/19 00:36:14;;;;;;;4.77;3.50;;;19.60;92.80;;;;;;5024291;28;20198;-55
2021/07/19 00:38:41;;;;;;;4.43;3.20;;;19.50;68.30;;;;;;5017289;28;20260;-55
2021/07/19 00:41:08;;;;;;;7.77;3.40;;;19.40;99.90;;;;;;5020865;28;20631;-55
2021/07/19 00:43:35;;;;;;;6.17;3.17;;;19.50;99.90;;;;;;5027037;28;20302;-55
2021/07/19 00:46:02;;;;;;;4.90;3.63;;;19.50;99.90;;;;;;5025568;28;20547;-55
2021/07/19 00:48:29;;;;;;;5.20;3.30;;;19.40;91.10;;;;;;5023352;28;20406;-55
2021/07/19 00:50:56;;;;;;;5.17;3.60;;;19.30;99.90;;;;;;5021655;28;20228;-55
2021/07/19 00:53:23;;;;;;;5.43;3.57;;;19.40;71.80;;;;;;5022480;28;20246;-55
2021/07/19 00:55:51;;;;;;;7.13;3.33;;;19.30;67.80;;;;;;5023270;28;20205;-55
2021/07/19 00:58:19;;;;;;;6.80;3.53;;;19.40;99.90;;;;;;5031016;28;20244;-55
2021/07/19 01:00:50;;;;;;;6.50;3.70;;;19.30;24.50;;;;;;5029320;28;20547;-55
2021/07/19 01:03:18;;;;;;;4.33;3.20;;;19.30;99.90;;;;;;5028053;28;20204;-55
2021/07/19 01:05:46;;;;;;;4.47;2.90;;;19.30;99.90;;;;;;5023586;28;20219;-55
2021/07/19 01:08:13;;;;;;;5.77;3.00;;;19.20;56.40;;;;;;5023169;28;20583;-57
2021/07/19 01:10:40;;;;;;;7.60;3.93;;;19.30;1.00;;;;;;5024663;28;20726;-55
2021/07/19 01:13:08;;;;;;;4.90;3.37;;;19.20;35.20;;;;;;5024810;28;20204;-55
2021/07/19 01:15:37;;;;;;;7.07;3.30;;;19.20;17.30;;;;;;5023682;28;20312;-55
2021/07/19 01:18:06;;;;;;;4.57;3.20;;;19.20;78.20;;;;;;5022201;28;20790;-55
2021/07/19 01:20:59;;;;;;;7.67;3.27;;;19.00;89.20;;;;;;5027487;28;20262;-55
2021/07/19 01:24:08;;;;;;;6.23;3.37;;;19.10;30.20;;;;;;5022399;28;20554;-56
2021/07/19 01:26:56;;;;;;;4.07;3.37;;;19.00;45.40;;;;;;5023168;28;20312;-56
2021/07/19 01:29:24;;;;;;;7.00;3.93;;;19.00;47.80;;;;;;5026141;28;20198;-56
2021/07/19 01:31:52;;;;;;;6.80;3.10;;;18.90;95.20;;;;;;5026548;28;20251;-56
2021/07/19 01:34:23;;;;;;;4.77;3.47;;;18.80;93.00;;;;;;5023262;28;20291;-56
2021/07/19 01:36:57;;;;;;;5.10;3.50;;;18.90;94.50;;;;;;5023843;28;20331;-56
2021/07/19 01:39:28;;;;;;;5.37;3.27;;;18.90;88.80;;;;;;5028548;28;20197;-56
2021/07/19 01:41:56;;;;;;;4.63;3.60;;;18.90;39.60;;;;;;5022297;28;20327;-56
2021/07/19 01:44:24;;;;;;;6.00;3.90;;;18.90;29.90;;;;;;5022627;28;20210;-56
2021/07/19 01:46:52;;;;;;;4.33;2.93;;;18.90;85.10;;;;;;5020275;28;20209;-56
2021/07/19 01:49:22;;;;;;;5.07;3.07;;;18.90;37.30;;;;;;5021926;28;21020;-56
2021/07/19 01:51:51;;;;;;;6.17;3.83;;;18.90;40.00;;;;;;5024937;28;20312;-56
2021/07/19 01:54:19;;;;;;;5.60;3.37;;;18.80;58.60;;;;;;5024070;28;20303;-56
2021/07/19 01:56:49;;;;;;;7.13;3.53;;;18.70;84.00;;;;;;5021299;28;20342;-56
2021/07/19 01:59:18;;;;;;;6.57;3.47;;;18.60;99.90;;;;;;5029279;28;20203;-56
2021/07/19 02:01:45;;;;;;;5.60;3.60;;;18.70;99.90;;;;;;5027456;28;20203;-56
2021/07/19 02:04:12;;;;;;;5.70;3.27;;;18.60;99.90;;;;;;5044973;28;20255;-56
2021/07/19 02:06:42;;;;;;;5.90;3.67;;;18.60;99.90;;;;;;5026413;28;20198;-56
2021/07/19 02:09:10;;;;;;;8.83;3.33;;;18.60;99.90;;;;;;5027263;28;20206;-56
2021/07/19 02:11:37;;;;;;;4.90;3.07;;;18.70;99.90;;;;;;5026326;28;20883;-56
2021/07/19 02:14:07;;;;;;;4.63;3.60;;;18.70;99.90;;;;;;5026646;28;20203;-56
2021/07/19 02:16:37;;;;;;;4.77;3.57;;;18.70;88.50;;;;;;5022912;28;20301;-56
2021/07/19 02:19:06;;;;;;;4.73;3.80;;;18.60;93.40;;;;;;5028681;28;20203;-56
2021/07/19 02:21:33;;;;;;;4.67;3.40;;;18.60;94.40;;;;;;5029567;28;20267;-56
2021/07/19 02:24:02;;;;;;;6.97;3.87;;;18.70;96.10;;;;;;5027488;28;20304;-56
2021/07/19 02:26:30;;;;;;;7.27;4.00;;;18.60;83.40;;;;;;5028769;28;20346;-56
2021/07/19 02:28:57;;;;;;;5.73;4.00;;;18.60;91.50;;;;;;5025812;28;20270;-56
2021/07/19 02:31:26;;;;;;;7.70;3.87;;;18.50;99.90;;;;;;5024808;28;20971;-56
2021/07/19 02:33:54;;;;;;;5.23;3.83;;;18.50;99.90;;;;;;5022737;28;20310;-56
2021/07/19 02:36:22;;;;;;;4.70;4.00;;;18.30;99.90;;;;;;5027850;28;20296;-56
2021/07/19 02:38:51;;;;;;;6.03;3.63;;;18.40;99.90;;;;;;5026519;28;20628;-56
2021/07/19 02:41:22;;;;;;;5.50;3.73;;;18.50;99.90;;;;;;5029408;28;20203;-56
2021/07/19 02:43:50;;;;;;;5.83;4.27;;;18.50;99.90;;;;;;5028817;28;20241;-56
2021/07/19 02:46:19;;;;;;;6.27;4.20;;;18.40;99.90;;;;;;5026433;28;20212;-56
2021/07/19 02:48:48;;;;;;;5.03;3.80;;;18.40;99.90;;;;;;5024781;28;20359;-56
2021/07/19 02:51:16;;;;;;;8.57;4.20;;;18.50;99.90;;;;;;5026885;28;20441;-56
2021/07/19 02:53:43;;;;;;;7.03;4.40;;;18.40;99.90;;;;;;5025965;28;20326;-56
2021/07/19 02:56:10;;;;;;;7.47;3.93;;;18.40;99.90;;;;;;5024376;28;21058;-56
2021/07/19 02:58:40;;;;;;;6.07;4.37;;;18.50;99.90;;;;;;5034987;28;20289;-56
2021/07/19 03:01:10;;;;;;;5.93;4.03;;;18.50;99.90;;;;;;5022299;28;20556;-56
2021/07/19 03:03:38;;;;;;;5.53;3.97;;;18.40;93.00;;;;;;5023162;28;20211;-56
2021/07/19 03:06:09;;;;;;;5.07;3.50;;;18.40;99.90;;;;;;5024463;28;20981;-56
2021/07/19 03:08:41;;;;;;;5.40;4.20;;;18.30;99.90;;;;;;5031842;28;20309;-56
2021/07/19 03:11:14;;;;;;;6.63;4.23;;;18.30;99.90;;;;;;5033069;28;20250;-56
2021/07/19 03:13:43;;;;;;;6.30;4.50;;;18.30;99.90;;;;;;5023840;28;20227;-56
2021/07/19 03:16:12;;;;;;;5.90;4.27;;;18.20;99.90;;;;;;5022809;28;20254;-56
2021/07/19 03:18:44;;;;;;;6.47;4.43;;;18.00;99.90;;;;;;5023204;28;20227;-56
2021/07/19 03:21:16;;;;;;;6.57;4.80;;;18.00;99.90;;;;;;5023020;28;20295;-56
2021/07/19 03:23:45;;;;;;;6.00;4.13;;;18.20;99.90;;;;;;5023254;28;20295;-56
2021/07/19 03:26:12;;;;;;;4.97;4.07;;;18.20;99.90;;;;;;5023030;28;20338;-56
2021/07/19 03:28:42;;;;;;;6.07;4.10;;;18.20;99.90;;;;;;5021902;28;20220;-56
2021/07/19 03:31:09;;;;;;;7.77;4.60;;;18.30;99.90;;;;;;5022846;28;20346;-56
2021/07/19 03:33:43;;;;;;;6.07;4.67;;;18.30;99.90;;;;;;5024761;28;20204;-56
2021/07/19 03:36:11;;;;;;;7.53;4.40;;;18.30;99.90;;;;;;5028504;28;20220;-56
2021/07/19 03:38:39;;;;;;;5.80;4.63;;;18.20;99.90;;;;;;5024390;28;20339;-56
2021/07/19 03:41:06;;;;;;;6.63;4.30;;;18.20;99.90;;;;;;5026188;28;20354;-56
2021/07/19 03:43:34;;;;;;;7.67;4.50;;;18.10;99.90;;;;;;5028040;28;22058;-56
2021/07/19 03:46:01;;;;;;;7.90;4.80;;;18.10;99.90;;;;;;5018785;28;20648;-56
2021/07/19 03:48:29;;;;;;;5.77;4.77;;;18.10;99.90;;;;;;5026866;28;20751;-56
2021/07/19 03:50:56;;;;;;;6.77;4.60;;;17.90;99.90;;;;;;5031723;28;20604;-56
2021/07/19 03:53:24;;;;;;;8.27;4.97;;;17.90;99.90;;;;;;5024400;28;20205;-56
2021/07/19 03:55:51;;;;;;;5.40;4.77;;;17.90;99.90;;;;;;5023691;28;20203;-56
2021/07/19 03:58:19;;;;;;;8.53;4.83;;;17.90;99.90;;;;;;5023501;28;20296;-56
2021/07/19 04:00:46;;;;;;;7.73;4.57;;;17.90;99.90;;;;;;5029448;28;20259;-56
2021/07/19 04:03:19;;;;;;;7.77;4.70;;;17.80;99.90;;;;;;5025844;28;20215;-56
2021/07/19 04:05:50;;;;;;;8.67;4.93;;;17.70;99.90;;;;;;5033774;28;20218;-56
2021/07/19 04:08:18;;;;;;;7.90;5.27;;;17.80;99.90;;;;;;5022112;28;20330;-56
2021/07/19 04:10:45;;;;;;;6.13;4.43;;;17.80;99.90;;;;;;5024001;28;20212;-56
2021/07/19 04:13:12;;;;;;;10.37;5.37;;;17.80;99.90;;;;;;5025390;28;20838;-56
2021/07/19 04:15:44;;;;;;;9.67;4.87;;;17.90;99.90;;;;;;5026699;28;20305;-56
2021/07/19 04:18:12;;;;;;;6.60;4.53;;;17.90;99.90;;;;;;5025791;28;20227;-56
2021/07/19 04:20:43;;;;;;;7.10;4.50;;;17.90;99.90;;;;;;5027421;28;20415;-56
2021/07/19 04:23:15;;;;;;;9.70;4.93;;;17.90;99.90;;;;;;5022926;28;20632;-56
2021/07/19 04:25:44;;;;;;;8.87;4.97;;;17.90;99.90;;;;;;5023197;28;20658;-56
2021/07/19 04:28:15;;;;;;;8.07;4.57;;;17.90;99.90;;;;;;5023753;28;20221;-56
2021/07/19 04:30:44;;;;;;;7.57;4.67;;;17.90;99.90;;;;;;5021409;28;20226;-56
2021/07/19 04:33:16;;;;;;;7.47;4.67;;;17.80;99.90;;;;;;5021689;28;20241;-56
2021/07/19 04:35:45;;;;;;;11.50;5.80;;;17.90;99.90;;;;;;5027630;28;20219;-56
2021/07/19 04:38:23;;;;;;;6.07;4.53;;;18.00;99.90;;;;;;5022192;28;20217;-56
2021/07/19 04:40:56;;;;;;;7.80;4.93;;;17.90;99.90;;;;;;5021399;28;20632;-56
2021/07/19 04:43:24;;;;;;;11.63;4.80;;;17.90;99.90;;;;;;5022711;28;20303;-56
2021/07/19 04:45:52;;;;;;;7.20;4.57;;;17.90;99.90;;;;;;5022937;28;20297;-56
2021/07/19 04:48:19;;;;;;;6.40;4.70;;;18.00;99.90;;;;;;5027975;28;20384;-56
2021/07/19 04:50:47;;;;;;;9.20;4.43;;;18.00;99.90;;;;;;5026789;28;20703;-56
2021/07/19 04:53:15;;;;;;;8.93;4.40;;;18.00;99.90;;;;;;5023002;28;20309;-56
2021/07/19 04:55:51;;;;;;;9.03;4.80;;;18.20;99.90;;;;;;5024808;28;20196;-56
2021/07/19 04:58:22;;;;;;;9.13;5.30;;;18.20;99.90;;;;;;5022890;28;20306;-56
2021/07/19 05:00:54;;;;;;;7.10;4.90;;;18.20;99.90;;;;;;5018747;28;20252;-56
2021/07/19 05:03:24;;;;;;;8.03;5.20;;;18.20;99.90;;;;;;5020390;28;20234;-56
2021/07/19 05:05:53;;;;;;;8.77;5.10;;;18.00;99.90;;;;;;5032394;28;20278;-56
2021/07/19 05:08:22;;;;;;;7.73;5.50;;;18.20;99.90;;;;;;5023682;28;20809;-56
2021/07/19 05:10:50;;;;;;;8.13;4.90;;;18.20;99.90;;;;;;5029444;28;20224;-56
2021/07/19 05:13:18;;;;;;;6.93;4.33;;;18.20;99.90;;;;;;5022599;28;20210;-56
2021/07/19 05:15:45;;;;;;;10.17;4.33;;;18.30;99.90;;;;;;5025747;28;20714;-56
2021/07/19 05:18:16;;;;;;;8.43;4.93;;;18.30;99.90;;;;;;5029606;28;20211;-56
2021/07/19 05:20:44;;;;;;;7.20;4.83;;;18.30;99.90;;;;;;5025798;28;20432;-56
2021/07/19 05:23:12;;;;;;;7.93;5.07;;;18.20;99.90;;;;;;5031535;28;20295;-56
2021/07/19 05:25:38;;;;;;;9.10;5.10;;;18.20;99.90;;;;;;5033437;28;20310;-56
2021/07/19 05:28:13;;;;;;;7.63;4.93;;;18.40;99.90;;;;;;5029465;28;20246;-56
2021/07/19 05:30:44;;;;;;;8.83;4.73;;;18.40;99.90;;;;;;5028578;28;20252;-56
2021/07/19 05:33:12;;;;;;;8.07;4.50;;;18.50;99.90;;;;;;5031648;28;20202;-56
2021/07/19 05:35:39;;;;;;;12.67;5.33;;;18.60;99.90;;;;;;5037232;28;20234;-56
2021/07/19 05:38:06;;;;;;;8.03;5.33;;;18.80;85.60;;;;;;5026781;28;20301;-55
2021/07/19 05:40:34;;;;;;;6.67;4.30;;;18.90;56.50;;;;;;5023891;28;20348;-56
2021/07/19 05:43:02;;;;;;;10.13;5.07;;;19.00;1.00;;;;;;5027569;28;20993;-56
2021/07/19 05:45:29;;;;;;;9.00;5.20;;;19.00;1.00;;;;;;5024025;28;20217;-56
2021/07/19 05:47:58;;;;;;;8.10;5.07;;;19.00;1.00;;;;;;5023883;28;20486;-56
2021/07/19 05:50:27;;;;;;;9.13;4.97;;;19.00;1.00;;;;;;5024401;28;20202;-56
2021/07/19 05:52:57;;;;;;;8.37;5.57;;;19.10;1.00;;;;;;5028834;28;20301;-56
2021/07/19 05:55:25;;;;;;;11.03;5.20;;;19.00;1.00;;;;;;5023484;28;20241;-56
2021/07/19 05:57:52;;;;;;;6.40;4.57;;;19.10;1.00;;;;;;5020255;28;20205;-56
2021/07/19 06:00:19;;;;;;;12.77;6.27;;;19.10;1.00;;;;;;5029438;28;20614;-56
2021/07/19 06:02:46;;;;;;;12.67;5.90;;;19.10;1.00;;;;;;5027716;28;20246;-56
2021/07/19 06:05:14;;;;;;;9.17;5.53;;;19.10;1.00;;;;;;5023894;28;20225;-56
2021/07/19 06:07:41;;;;;;;9.03;4.80;;;19.00;1.00;;;;;;5029768;28;20203;-56
2021/07/19 06:10:11;;;;;;;9.37;5.00;;;19.00;1.00;;;;;;5025802;28;20542;-56
2021/07/19 06:12:39;;;;;;;10.77;4.90;;;19.10;1.00;;;;;;5025128;28;20883;-57
2021/07/19 06:15:09;;;;;;;9.40;5.63;;;19.10;1.00;;;;;;5024615;28;20410;-57
2021/07/19 06:17:38;;;;;;;5.90;4.70;;;19.30;1.00;;;;;;5024686;28;20208;-56
2021/07/19 06:20:13;;;;;;;7.90;5.07;;;19.20;1.00;;;;;;5029612;28;20209;-56
2021/07/19 06:22:41;;;;;;;8.90;4.93;;;19.20;1.00;;;;;;5028789;28;20219;-57
2021/07/19 06:25:10;;;;;;;6.27;4.83;;;19.10;1.00;;;;;;5028883;28;20270;-57
2021/07/19 06:27:37;;;;;;;7.10;4.97;;;19.20;1.00;;;;;;5039648;28;20984;-56
2021/07/19 06:30:12;;;;;;;7.27;4.20;;;19.30;1.00;;;;;;5012565;28;20280;-56
2021/07/19 06:32:39;;;;;;;6.10;4.00;;;19.50;99.90;;;;;;5022405;28;20598;-57
2021/07/19 06:35:07;;;;;;;5.73;4.33;;;19.50;99.90;;;;;;5024607;28;20235;-57
2021/07/19 06:37:33;;;;;;;7.33;4.07;;;19.50;99.90;;;;;;5027045;28;20573;-57
2021/07/19 06:40:00;;;;;;;7.23;4.10;;;19.60;99.90;;;;;;5025669;28;20216;-56
2021/07/19 06:42:27;;;;;;;4.87;3.90;;;19.70;1.00;;;;;;5026336;28;20235;-56
2021/07/19 06:44:56;;;;;;;8.33;4.47;;;19.80;99.90;;;;;;5029601;28;20303;-56
2021/07/19 06:47:27;;;;;;;6.30;3.67;;;19.70;1.00;;;;;;5045505;28;20207;-56
2021/07/19 06:49:55;;;;;;;6.57;3.97;;;19.60;1.00;;;;;;5024730;28;20306;-56
2021/07/19 06:52:22;;;;;;;5.87;3.73;;;19.60;1.00;;;;;;5022857;28;20827;-56
2021/07/19 06:54:49;;;;;;;6.57;3.90;;;19.70;1.00;;;;;;5028706;28;20694;-56
2021/07/19 06:57:16;;;;;;;6.27;4.37;;;19.70;1.00;;;;;;5024444;28;20371;-56
2021/07/19 06:59:43;;;;;;;6.27;4.07;;;19.90;1.00;;;;;;5026207;28;20212;-56
2021/07/19 07:02:10;;;;;;;5.30;3.70;;;19.90;1.00;;;;;;5026782;28;20293;-56
2021/07/19 07:04:38;;;;;;;7.03;4.13;;;19.90;1.00;;;;;;5021955;28;20280;-56
2021/07/19 07:07:04;;;;;;;5.93;3.87;;;20.20;1.00;;;;;;5025598;28;20335;-57
2021/07/19 07:09:33;;;;;;;5.10;3.47;;;20.10;1.00;;;;;;5021929;28;20369;-56
2021/07/19 07:12:17;;;;;;;5.97;3.70;;;20.20;1.00;;;;;;5026055;28;20314;-56
2021/07/19 07:14:44;;;;;;;4.53;3.60;;;20.40;99.90;;;;;;5019979;28;20212;-56
2021/07/19 07:17:11;;;;;;;4.97;4.00;;;20.30;1.00;;;;;;5025608;28;20193;-56
2021/07/19 07:19:38;;;;;;;5.53;3.70;;;20.30;1.00;;;;;;5032407;28;20231;-56
2021/07/19 07:22:05;;;;;;;6.17;4.47;;;20.40;1.00;;;;;;5029405;28;20231;-56
2021/07/19 07:24:34;;;;;;;7.43;4.10;;;20.40;99.90;;;;;;5029016;28;20624;-57
2021/07/19 07:27:01;;;;;;;7.43;4.00;;;20.50;99.90;;;;;;5031585;28;20330;-56
2021/07/19 07:29:28;;;;;;;7.10;4.50;;;20.40;99.90;;;;;;5025474;28;20372;-56
2021/07/19 07:31:55;;;;;;;6.50;4.50;;;20.20;36.90;;;;;;5024875;28;20221;-56
2021/07/19 07:34:22;;;;;;;6.30;4.23;;;20.30;1.00;;;;;;5024883;28;20630;-56
2021/07/19 07:36:53;;;;;;;7.37;4.40;;;20.40;1.00;;;;;;5009229;28;20292;-56
2021/07/19 07:39:20;;;;;;;6.50;4.33;;;20.50;1.00;;;;;;5023758;28;20203;-57
2021/07/19 07:41:47;;;;;;;8.20;4.60;;;20.40;1.00;;;;;;5026955;28;20299;-56
2021/07/19 07:44:14;;;;;;;7.30;4.03;;;20.50;99.90;;;;;;5022422;28;20275;-56
2021/07/19 07:46:43;;;;;;;6.33;3.87;;;20.30;1.00;;;;;;5020616;28;20283;-56
2021/07/19 07:49:10;;;;;;;9.80;5.10;;;20.30;1.00;;;;;;5024465;28;20240;-57
2021/07/19 07:51:37;;;;;;;8.70;4.40;;;20.00;1.00;;;;;;5018679;28;20240;-56
2021/07/19 07:54:03;;;;;;;8.00;4.40;;;20.30;1.00;;;;;;5023020;28;20208;-57
2021/07/19 07:56:30;;;;;;;6.23;4.63;;;20.50;1.00;;;;;;5029104;28;20640;-56
2021/07/19 07:59:15;;;;;;;6.67;4.40;;;20.80;99.90;;;;;;5023439;28;20222;-56
2021/07/19 08:01:42;;;;;;;6.63;4.37;;;21.20;1.00;;;;;;5026458;28;20207;-56
2021/07/19 08:04:09;;;;;;;8.10;4.80;;;21.10;99.90;;;;;;5022043;28;20204;-56
2021/07/19 08:06:36;;;;;;;6.03;4.50;;;21.00;74.50;;;;;;5024600;28;20664;-56
2021/07/19 08:09:03;;;;;;;6.17;4.73;;;20.80;1.00;;;;;;5025746;28;20208;-56
2021/07/19 08:11:29;;;;;;;9.57;4.90;;;20.50;1.00;;;;;;5023258;28;20295;-56
2021/07/19 08:13:57;;;;;;;9.60;5.10;;;20.70;99.90;;;;;;5020324;28;20595;-57
2021/07/19 08:16:24;;;;;;;9.47;5.30;;;20.80;1.00;;;;;;5025327;28;20212;-56
2021/07/19 08:18:51;;;;;;;9.00;5.33;;;20.90;1.00;;;;;;5012877;28;20309;-57
2021/07/19 08:21:18;;;;;;;7.63;5.10;;;20.90;1.00;;;;;;5028480;28;20735;-56
2021/07/19 08:23:46;;;;;;;8.43;5.33;;;21.10;1.00;;;;;;5024775;28;20721;-56
2021/07/19 08:26:14;;;;;;;8.83;5.40;;;21.00;1.00;;;;;;5028799;28;20302;-56
2021/07/19 08:28:41;;;;;;;8.83;5.37;;;21.20;1.00;;;;;;5027147;28;20411;-56
2021/07/19 08:31:08;;;;;;;7.17;5.23;;;21.10;99.90;;;;;;5026820;28;20238;-56
2021/07/19 08:33:34;;;;;;;9.10;4.90;;;21.10;1.00;;;;;;5030062;28;20663;-56
2021/07/19 08:36:01;;;;;;;7.53;5.20;;;20.70;99.90;;;;;;5029450;28;20291;-56
2021/07/19 08:38:28;;;;;;;7.90;5.63;;;21.00;1.00;;;;;;5028397;28;20326;-56
2021/07/19 08:40:56;;;;;;;5.97;5.07;;;21.20;1.00;;;;;;5027746;28;20220;-56
2021/07/19 08:43:38;;;;;;;6.20;4.67;;;21.50;99.90;;;;;;5034375;28;20220;-56
2021/07/19 08:46:06;;;;;;;8.60;5.50;;;21.60;99.90;;;;;;5028331;28;20331;-56
2021/07/19 08:48:34;;;;;;;7.53;4.90;;;21.60;99.90;;;;;;5029554;28;20231;-57
2021/07/19 08:51:03;;;;;;;9.60;5.60;;;21.40;1.00;;;;;;5032452;28;20331;-56
2021/07/19 08:53:36;;;;;;;10.97;6.33;;;21.70;1.00;;;;;;5026877;28;20363;-56
2021/07/19 08:56:07;;;;;;;8.50;5.57;;;21.70;8.90;;;;;;5032543;28;20601;-56
2021/07/19 08:58:34;;;;;;;8.10;5.43;;;21.40;99.90;;;;;;5035432;28;20721;-56
2021/07/19 09:01:02;;;;;;;8.43;6.10;;;21.80;1.00;;;;;;5033260;28;20196;-56
2021/07/19 09:03:30;;;;;;;9.57;6.33;;;21.90;99.90;;;;;;5032957;28;20204;-57
2021/07/19 09:05:57;;;;;;;8.17;5.80;;;22.00;99.90;;;;;;5031807;28;20205;-56
2021/07/19 09:08:24;;;;;;;8.37;5.60;;;21.90;1.00;;;;;;5036459;28;20592;-56
2021/07/19 09:10:51;;;;;;;9.33;6.17;;;21.50;99.90;;;;;;5033209;28;20273;-56
2021/07/19 09:13:22;;;;;;;8.27;6.43;;;21.40;99.90;;;;;;5033511;28;20212;-56
2021/07/19 09:15:58;;;;;;;10.97;6.60;;;21.50;99.90;;;;;;5026493;28;20231;-57
2021/07/19 09:18:25;;;;;;;11.23;7.47;;;21.90;99.90;;;;;;5030915;28;20194;-56
2021/07/19 09:20:52;;;;;;;9.30;6.40;;;22.10;1.70;;;;;;5031427;28;20564;-56
2021/07/19 09:23:28;;;;;;;8.73;6.03;;;21.90;1.00;;;;;;5027376;28;20215;-56
2021/07/19 09:26:10;;;;;;;8.87;6.37;;;22.40;1.00;;;;;;5032283;28;20611;-56
2021/07/19 09:28:37;;;;;;;7.73;5.33;;;22.60;1.00;;;;;;5031391;28;20224;-56
2021/07/19 09:31:06;;;;;;;11.97;5.97;;;22.20;69.80;;;;;;5022595;28;20251;-56
2021/07/19 09:33:35;;;;;;;12.73;6.13;;;22.30;1.00;;;;;;5028449;28;20277;-56
2021/07/19 09:36:03;;;;;;;8.70;6.37;;;22.40;1.00;;;;;;5027742;28;20200;-56
2021/07/19 09:38:31;;;;;;;8.27;5.80;;;22.50;99.90;;;;;;5030513;28;20228;-57
2021/07/19 09:40:59;;;;;;;8.47;5.80;;;22.40;1.00;;;;;;5024551;28;20297;-56
2021/07/19 09:43:30;;;;;;;8.63;6.43;;;22.10;1.00;;;;;;5025958;28;20706;-56
2021/07/19 09:46:02;;;;;;;10.23;6.63;;;21.90;99.90;;;;;;5029118;28;21039;-56
2021/07/19 09:48:30;;;;;;;8.67;5.37;;;22.00;99.90;;;;;;5027596;28;20553;-56
2021/07/19 09:50:58;;;;;;;9.30;5.83;;;22.20;1.00;;;;;;5036634;28;20587;-56
2021/07/19 09:53:39;;;;;;;7.83;5.73;;;22.00;1.00;;;;;;5032691;28;20197;-56
2021/07/19 09:56:19;;;;;;;9.00;5.60;;;22.20;99.90;;;;;;5031541;28;20531;-56
2021/07/19 09:58:47;;;;;;;11.83;6.73;;;22.60;1.00;;;;;;5030048;28;20651;-57
2021/07/19 10:01:35;;;;;;;8.73;5.83;;;22.60;1.00;;;;;;5028415;28;20265;-57
2021/07/19 10:04:14;;;;;;;11.83;6.27;;;22.40;1.00;;;;;;5030289;28;20533;-56
2021/07/19 10:06:44;;;;;;;9.03;6.20;;;22.20;99.90;;;;;;5033348;28;20202;-57
2021/07/19 10:09:13;;;;;;;8.93;6.30;;;22.50;1.00;;;;;;5032196;28;20311;-56
2021/07/19 10:11:47;;;;;;;12.90;6.97;;;22.70;1.00;;;;;;5032768;28;20196;-57
2021/07/19 10:14:35;;;;;;;7.50;5.63;;;22.30;85.90;;;;;;5030789;28;20303;-56
2021/07/19 10:17:03;;;;;;;7.67;5.63;;;22.50;33.80;;;;;;5026196;28;20648;-56
2021/07/19 10:19:34;;;;;;;8.77;6.27;;;23.10;99.90;;;;;;5031658;28;20886;-56
2021/07/19 10:22:01;;;;;;;8.47;5.90;;;23.10;1.00;;;;;;5038457;28;20201;-56
2021/07/19 10:24:29;;;;;;;7.13;5.23;;;22.80;1.00;;;;;;5038048;28;20929;-56
2021/07/19 10:26:56;;;;;;;8.93;5.80;;;22.90;1.00;;;;;;5037171;28;20245;-56
2021/07/19 10:29:23;;;;;;;10.50;5.90;;;22.60;99.90;;;;;;5040027;28;20303;-56
2021/07/19 10:31:50;;;;;;;9.10;6.43;;;22.80;1.00;;;;;;5039328;28;20302;-56
2021/07/19 10:34:19;;;;;;;13.43;6.33;;;22.40;99.90;;;;;;5043293;28;20200;-56
2021/07/19 10:36:53;;;;;;;8.10;5.60;;;22.40;1.00;;;;;;5041149;28;20586;-56
2021/07/19 10:39:28;;;;;;;8.20;5.70;;;22.40;1.00;;;;;;5040508;28;20290;-57
2021/07/19 10:42:06;;;;;;;8.10;5.63;;;22.60;32.10;;;;;;5043385;28;20681;-56
2021/07/19 10:44:36;;;;;;;8.93;5.60;;;22.70;1.00;;;;;;5042006;28;20234;-57
2021/07/19 10:47:22;;;;;;;8.70;5.47;;;22.60;1.00;;;;;;5042184;28;20677;-56
2021/07/19 10:50:00;;;;;;;7.60;5.17;;;22.90;99.90;;;;;;5042354;28;20691;-57
2021/07/19 10:52:37;;;;;;;8.43;4.90;;;22.90;1.00;;;;;;5042535;28;20201;-57
2021/07/19 10:55:07;;;;;;;10.93;4.70;;;22.60;99.90;;;;;;5044699;28;20656;-57
2021/07/19 10:57:46;;;;;;;7.97;5.10;;;22.80;99.90;;;;;;5039756;28;20295;-56
2021/07/19 11:00:19;;;;;;;7.20;5.10;;;22.70;44.10;;;;;;5036924;28;20286;-57
2021/07/19 11:02:47;;;;;;;7.20;4.70;;;22.60;1.00;;;;;;5037170;28;20502;-57
2021/07/19 11:05:18;;;;;;;8.03;5.40;;;23.10;1.00;;;;;;5038854;28;20232;-57
2021/07/19 11:07:45;;;;;;;7.87;5.67;;;23.40;56.10;;;;;;5033379;28;20212;-56
2021/07/19 11:10:20;;;;;;;8.10;5.40;;;23.60;69.80;;;;;;5036682;28;20283;-57
2021/07/19 11:12:52;;;;;;;9.50;5.43;;;23.70;1.00;;;;;;5038536;28;20204;-57
2021/07/19 11:15:21;;;;;;;7.90;5.07;;;24.10;1.00;;;;;;5038950;28;20542;-57
2021/07/19 11:17:49;;;;;;;10.17;5.83;;;24.20;1.00;;;;;;5037539;28;20227;-56
2021/07/19 11:20:17;;;;;;;10.00;5.13;;;23.50;1.00;;;;;;5042088;28;20206;-56
2021/07/19 11:22:44;;;;;;;5.53;4.20;;;23.70;1.00;;;;;;5037660;28;20614;-57
2021/07/19 11:25:14;;;;;;;7.20;5.23;;;23.50;1.00;;;;;;5038862;28;20201;-57
2021/07/19 11:27:43;;;;;;;7.80;4.67;;;23.20;99.90;;;;;;5039772;28;20215;-56
2021/07/19 11:30:25;;;;;;;10.90;5.53;;;23.10;1.00;;;;;;5039835;28;20679;-57
2021/07/19 11:32:52;;;;;;;8.03;5.33;;;23.40;1.00;;;;;;5036053;28;20300;-57
2021/07/19 11:35:22;;;;;;;7.20;4.17;;;23.60;5.20;;;;;;5039852;28;20346;-57
2021/07/19 11:37:51;;;;;;;11.20;4.73;;;23.80;99.90;;;;;;5039560;28;20235;-57
2021/07/19 11:40:31;;;;;;;6.73;5.03;;;24.10;99.90;;;;;;5038154;28;20239;-57
2021/07/19 11:43:12;;;;;;;6.07;4.70;;;24.30;99.90;;;;;;5039073;28;20672;-57
2021/07/19 11:45:44;;;;;;;7.43;5.37;;;24.60;23.00;;;;;;5039546;28;20677;-57
2021/07/19 11:48:11;;;;;;;9.63;4.80;;;23.90;99.90;;;;;;5037465;28;20304;-57
2021/07/19 11:50:38;;;;;;;7.23;4.77;;;24.20;1.00;;;;;;5036450;28;20749;-57
2021/07/19 11:53:05;;;;;;;7.07;4.67;;;23.90;1.00;;;;;;5034722;28;20244;-56
2021/07/19 11:55:34;;;;;;;7.43;5.33;;;23.70;1.00;;;;;;5036179;28;20236;-57
2021/07/19 11:58:03;;;;;;;6.30;4.53;;;23.20;3.20;;;;;;5034713;28;20206;-56
2021/07/19 12:00:34;;;;;;;8.10;5.13;;;23.20;1.00;;;;;;5038070;28;20207;-57
2021/07/19 12:03:21;;;;;;;9.17;5.10;;;23.20;99.90;;;;;;5035369;28;20660;-56
2021/07/19 12:05:54;;;;;;;6.30;4.80;;;23.20;1.00;;;;;;5034459;28;20253;-56
2021/07/19 12:08:35;;;;;;;6.53;4.80;;;23.80;99.90;;;;;;5038365;28;20211;-57
2021/07/19 12:11:11;;;;;;;7.10;4.43;;;23.90;1.00;;;;;;5030592;28;20215;-57
2021/07/19 12:13:43;;;;;;;9.87;5.70;;;23.90;1.00;;;;;;5036030;28;20269;-57
2021/07/19 12:16:11;;;;;;;7.20;5.07;;;24.40;1.00;;;;;;5027333;28;20300;-57
2021/07/19 12:18:41;;;;;;;6.43;4.47;;;24.90;99.90;;;;;;5032458;28;20294;-57
2021/07/19 12:21:15;;;;;;;8.27;4.97;;;25.00;1.00;;;;;;5034965;28;20206;-56
2021/07/19 12:23:50;;;;;;;9.03;5.27;;;24.40;1.00;;;;;;5035875;28;20202;-57
2021/07/19 12:26:20;;;;;;;11.57;5.13;;;24.00;1.00;;;;;;5036544;28;20282;-57
2021/07/19 12:28:52;;;;;;;7.67;5.10;;;24.40;1.00;;;;;;5032237;28;20203;-56
2021/07/19 12:31:46;;;;;;;8.67;5.00;;;24.40;99.90;;;;;;5032306;28;20264;-57
2021/07/19 12:34:20;;;;;;;7.47;4.83;;;24.70;1.00;;;;;;5036145;28;20213;-57
2021/07/19 12:37:08;;;;;;;8.47;4.93;;;23.90;1.00;;;;;;5034703;28;20298;-57
2021/07/19 12:39:47;;;;;;;7.67;5.10;;;23.90;1.00;;;;;;5034939;28;20274;-57
2021/07/19 12:42:22;;;;;;;7.80;5.30;;;24.10;1.00;;;;;;5034778;28;20203;-57
2021/07/19 12:44:57;;;;;;;9.80;4.77;;;24.20;1.00;;;;;;5036239;28;20251;-57
2021/07/19 12:47:26;;;;;;;7.83;4.70;;;24.50;1.00;;;;;;5034695;28;20572;-57
2021/07/19 12:49:53;;;;;;;8.67;5.40;;;24.80;1.00;;;;;;5037127;28;20325;-57
2021/07/19 12:52:22;;;;;;;9.13;4.40;;;25.00;1.00;;;;;;5035909;28;20295;-56
2021/07/19 12:55:12;;;;;;;7.53;4.93;;;25.30;1.00;;;;;;5034747;28;20226;-57
2021/07/19 12:57:49;;;;;;;7.37;4.67;;;25.20;1.00;;;;;;5033632;28;20192;-57
2021/07/19 13:00:17;;;;;;;7.27;4.77;;;25.50;99.90;;;;;;5034932;28;20230;-57
2021/07/19 13:02:45;;;;;;;6.73;4.87;;;25.60;99.90;;;;;;5033871;28;20227;-57
2021/07/19 13:05:16;;;;;;;9.73;5.57;;;25.10;99.90;;;;;;5036988;28;20254;-57